Rio, West Virginia
Current Conditions -  °F | °C
As of 3:15 PM on Friday 21 Nov 2014 (Local Time) from KFRR Reporting Station
Clear Clear  
Wind Chill: 27°   Ceiling: Unl
Heat Index: 34°   Visibility: 10mi
Dew Point:   Wind: 8mph
Humidity: 32%   Direction: 310°NW
Pressure: 30.44"   Gusts: NA
Location:  39.14°N, 78.67°W
Report Text: KFRR 212015Z AUTO 31007KT 10SM CLR 01/M14 A3044 RMK AO1
Loading
Personal Weather Stations






























Interactive Weather Map New forecast layout! Learn more

10-Day Weather Forecast

Advertisements
Track Severe Weather on mobile